createdAt,value
2019-06-01T00:00:46.350Z,15.70
2019-06-01T00:03:15.276Z,15.70
2019-06-01T00:05:44.606Z,15.70
2019-06-01T00:08:13.627Z,15.70
2019-06-01T00:10:42.970Z,15.70
2019-06-01T00:13:12.053Z,15.60
2019-06-01T00:15:41.921Z,15.60
2019-06-01T00:18:10.759Z,15.50
2019-06-01T00:20:40.072Z,15.50
2019-06-01T00:23:08.951Z,15.40
2019-06-01T00:25:37.793Z,15.40
2019-06-01T00:28:06.765Z,15.40
2019-06-01T00:30:35.641Z,15.30
2019-06-01T00:33:04.447Z,15.30
2019-06-01T00:35:33.345Z,15.30
2019-06-01T00:38:02.134Z,15.20
2019-06-01T00:40:35.394Z,15.20
2019-06-01T00:43:04.471Z,15.20
2019-06-01T00:45:33.374Z,15.20
2019-06-01T00:48:02.181Z,15.20
2019-06-01T00:50:31.049Z,15.10
2019-06-01T00:52:59.882Z,15.10
2019-06-01T00:55:28.774Z,15.10
2019-06-01T00:57:57.595Z,15.10
2019-06-01T01:00:40.681Z,15.00
2019-06-01T01:02:57.142Z,15.00
2019-06-01T01:05:26.322Z,15.00
2019-06-01T01:07:55.401Z,15.00
2019-06-01T01:10:24.207Z,15.00
2019-06-01T01:13:12.849Z,14.90
2019-06-01T01:15:41.810Z,14.90
2019-06-01T01:18:10.775Z,14.90
2019-06-01T01:20:39.581Z,14.80
2019-06-01T01:23:08.388Z,14.80
2019-06-01T01:25:37.199Z,14.80
2019-06-01T01:28:06.202Z,14.70
2019-06-01T01:30:35.013Z,14.70
2019-06-01T01:33:04.205Z,14.70
2019-06-01T01:35:33.030Z,14.70
2019-06-01T01:38:01.868Z,14.60
2019-06-01T01:40:30.876Z,14.60
2019-06-01T01:42:59.677Z,14.60
2019-06-01T01:45:28.515Z,14.60
2019-06-01T01:47:57.405Z,14.50
2019-06-01T01:50:27.156Z,14.50
2019-06-01T01:52:57.094Z,14.50
2019-06-01T01:55:26.202Z,14.40
2019-06-01T01:57:55.567Z,14.40
2019-06-01T02:00:39.351Z,14.40
2019-06-01T02:03:08.508Z,14.40
2019-06-01T02:05:37.707Z,14.30
2019-06-01T02:08:06.728Z,14.30
2019-06-01T02:10:35.585Z,14.30
2019-06-01T02:13:05.092Z,14.30
2019-06-01T02:15:36.110Z,14.30
2019-06-01T02:18:05.861Z,14.30
2019-06-01T02:20:35.161Z,14.30
2019-06-01T02:23:04.618Z,14.30
2019-06-01T02:25:33.424Z,14.20
2019-06-01T02:28:03.392Z,14.20
2019-06-01T02:30:32.314Z,14.20
2019-06-01T02:33:02.402Z,14.20
2019-06-01T02:35:31.884Z,14.10
2019-06-01T02:38:02.800Z,14.10
2019-06-01T02:40:31.613Z,14.10
2019-06-01T02:43:01.393Z,14.10
2019-06-01T02:45:31.058Z,14.10
2019-06-01T02:48:01.557Z,14.10
2019-06-01T02:50:30.782Z,14.00
2019-06-01T02:52:59.651Z,14.00
2019-06-01T02:55:28.559Z,14.00
2019-06-01T02:57:58.045Z,14.00
2019-06-01T03:00:48.387Z,14.00
2019-06-01T03:03:17.433Z,14.00
2019-06-01T03:05:46.340Z,13.90
2019-06-01T03:08:16.141Z,13.90
2019-06-01T03:10:45.377Z,13.90
2019-06-01T03:13:14.167Z,13.90
2019-06-01T03:15:43.213Z,13.90
2019-06-01T03:18:13.052Z,13.90
2019-06-01T03:20:41.908Z,13.90
2019-06-01T03:23:10.696Z,13.80
2019-06-01T03:25:39.609Z,13.80
2019-06-01T03:28:08.510Z,13.80
2019-06-01T03:30:45.420Z,13.80
2019-06-01T03:33:14.403Z,13.80
2019-06-01T03:35:43.413Z,13.80
2019-06-01T03:38:12.391Z,13.70
2019-06-01T03:40:41.290Z,13.70
2019-06-01T03:43:11.299Z,13.70
2019-06-01T03:45:40.364Z,13.70
2019-06-01T03:48:09.268Z,13.60
2019-06-01T03:50:38.181Z,13.60
2019-06-01T03:53:26.418Z,13.70
2019-06-01T03:55:55.316Z,13.70
2019-06-01T03:58:24.270Z,13.60
2019-06-01T04:00:53.110Z,13.60
2019-06-01T04:03:21.973Z,13.60
2019-06-01T04:05:51.144Z,13.70
2019-06-01T04:08:20.134Z,13.60
2019-06-01T04:10:49.036Z,13.70
2019-06-01T04:13:17.817Z,13.70
2019-06-01T04:15:46.645Z,13.70
2019-06-01T04:18:15.506Z,13.70
2019-06-01T04:20:44.528Z,13.70
2019-06-01T04:23:13.317Z,13.70
2019-06-01T04:25:42.217Z,13.80
2019-06-01T04:28:13.953Z,13.80
2019-06-01T04:30:42.735Z,13.80
2019-06-01T04:33:11.561Z,13.80
2019-06-01T04:35:40.345Z,13.80
2019-06-01T04:38:09.302Z,13.80
2019-06-01T04:40:38.348Z,13.90
2019-06-01T04:43:07.890Z,13.90
2019-06-01T04:45:36.795Z,13.90
2019-06-01T04:48:06.402Z,13.90
2019-06-01T04:50:35.419Z,13.90
2019-06-01T04:53:04.669Z,14.00
2019-06-01T04:55:33.521Z,14.00
2019-06-01T04:58:02.351Z,14.00
2019-06-01T05:00:31.387Z,14.00
2019-06-01T05:03:05.209Z,14.10
2019-06-01T05:05:30.817Z,14.10
2019-06-01T05:07:59.677Z,14.20
2019-06-01T05:10:28.540Z,14.20
2019-06-01T05:12:57.596Z,14.30
2019-06-01T05:15:26.405Z,14.30
2019-06-01T05:17:55.427Z,14.40
2019-06-01T05:20:24.243Z,14.40
2019-06-01T05:22:53.045Z,14.50
2019-06-01T05:25:21.840Z,14.60
2019-06-01T05:27:50.640Z,14.60
2019-06-01T05:30:19.741Z,14.70
2019-06-01T05:32:48.645Z,14.70
2019-06-01T05:35:18.002Z,14.80
2019-06-01T05:37:46.931Z,14.80
2019-06-01T05:40:16.668Z,14.90
2019-06-01T05:42:45.640Z,14.90
2019-06-01T05:45:15.077Z,15.00
2019-06-01T05:47:44.325Z,15.10
2019-06-01T05:50:14.281Z,15.10
2019-06-01T05:52:43.278Z,15.20
2019-06-01T05:55:12.917Z,15.20
2019-06-01T05:57:41.833Z,15.30
2019-06-01T06:00:11.353Z,15.30
2019-06-01T06:02:40.221Z,15.40
2019-06-01T06:05:10.502Z,15.50
2019-06-01T06:07:39.618Z,15.50
2019-06-01T06:10:10.148Z,15.60
2019-06-01T06:12:39.040Z,15.60
2019-06-01T06:15:07.914Z,15.70
2019-06-01T06:17:36.749Z,15.80
2019-06-01T06:20:08.483Z,15.80
2019-06-01T06:22:37.317Z,15.90
2019-06-01T06:25:09.942Z,15.90
2019-06-01T06:27:38.863Z,16.00
2019-06-01T06:30:08.505Z,16.00
2019-06-01T06:32:37.381Z,16.10
2019-06-01T06:35:06.325Z,16.20
2019-06-01T06:37:35.185Z,16.20
2019-06-01T06:40:06.802Z,16.20
2019-06-01T06:42:35.595Z,16.30
2019-06-01T06:45:05.173Z,16.30
2019-06-01T06:47:34.029Z,16.40
2019-06-01T06:50:03.201Z,16.40
2019-06-01T06:52:32.110Z,16.50
2019-06-01T06:55:01.013Z,16.50
2019-06-01T06:57:29.800Z,16.60
2019-06-01T06:59:58.574Z,16.60
2019-06-01T07:02:27.408Z,16.60
2019-06-01T07:04:56.229Z,16.70
2019-06-01T07:07:25.814Z,16.70
2019-06-01T07:09:54.891Z,16.80
2019-06-01T07:12:23.709Z,16.90
2019-06-01T07:14:52.517Z,16.90
2019-06-01T07:17:21.560Z,17.00
2019-06-01T07:19:50.412Z,17.10
2019-06-01T07:22:19.790Z,17.20
2019-06-01T07:24:48.753Z,17.20
2019-06-01T07:27:17.603Z,17.30
2019-06-01T07:29:46.655Z,17.40
2019-06-01T07:32:15.542Z,17.40
2019-06-01T07:34:44.363Z,17.50
2019-06-01T07:37:13.188Z,17.50
2019-06-01T07:39:42.218Z,17.60
2019-06-01T07:42:11.309Z,17.70
2019-06-01T07:44:40.158Z,17.80
2019-06-01T07:47:09.055Z,17.80
2019-06-01T07:49:37.998Z,17.90
2019-06-01T07:52:12.819Z,18.00
2019-06-01T07:54:37.492Z,18.20
2019-06-01T07:57:06.299Z,18.20
2019-06-01T07:59:35.183Z,18.30
2019-06-01T08:02:04.132Z,18.40
2019-06-01T08:04:50.553Z,18.50
2019-06-01T08:07:03.631Z,18.70
2019-06-01T08:09:32.553Z,18.80
2019-06-01T08:12:01.446Z,18.90
2019-06-01T08:14:30.609Z,19.00
2019-06-01T08:16:59.556Z,19.10
2019-06-01T08:19:28.368Z,19.10
2019-06-01T08:21:57.259Z,19.20
2019-06-01T08:24:26.352Z,19.30
2019-06-01T08:26:55.308Z,19.40
2019-06-01T08:29:24.665Z,19.40
2019-06-01T08:31:55.847Z,19.50
2019-06-01T08:34:24.751Z,19.60
2019-06-01T08:36:53.616Z,19.70
2019-06-01T08:39:23.493Z,19.80
2019-06-01T08:41:52.562Z,20.00
2019-06-01T08:44:21.461Z,20.10
2019-06-01T08:46:50.515Z,20.20
2019-06-01T08:49:19.524Z,20.30
2019-06-01T08:51:48.418Z,20.40
2019-06-01T08:54:17.280Z,20.50
2019-06-01T08:56:46.258Z,20.60
2019-06-01T08:59:15.169Z,20.70
2019-06-01T09:01:44.037Z,20.80
2019-06-01T09:04:12.883Z,21.10
2019-06-01T09:06:41.740Z,21.30
2019-06-01T09:09:11.931Z,21.20
2019-06-01T09:11:44.413Z,21.10
2019-06-01T09:14:13.406Z,21.10
2019-06-01T09:16:42.270Z,21.20
2019-06-01T09:19:11.759Z,21.30
2019-06-01T09:22:10.314Z,21.50
2019-06-01T09:24:37.597Z,21.60
2019-06-01T09:27:06.481Z,21.80
2019-06-01T09:29:36.159Z,21.90
2019-06-01T09:32:10.318Z,22.10
2019-06-01T09:34:36.515Z,22.20
2019-06-01T09:37:05.814Z,22.30
2019-06-01T09:39:35.084Z,22.40
2019-06-01T09:42:04.169Z,22.50
2019-06-01T09:44:33.570Z,22.60
2019-06-01T09:47:02.567Z,22.70
2019-06-01T09:49:32.602Z,22.80
2019-06-01T09:52:02.332Z,22.90
2019-06-01T09:54:33.093Z,23.00
2019-06-01T09:57:02.247Z,23.10
2019-06-01T09:59:31.963Z,23.20
2019-06-01T10:02:00.978Z,23.40
2019-06-01T10:04:30.192Z,23.40
2019-06-01T10:07:02.063Z,23.50
2019-06-01T10:09:31.516Z,23.60
2019-06-01T10:12:00.823Z,23.70
2019-06-01T10:14:30.066Z,23.80
2019-06-01T10:16:59.115Z,23.90
2019-06-01T10:19:27.967Z,24.00
2019-06-01T10:21:57.335Z,24.00
2019-06-01T10:24:26.303Z,24.10
2019-06-01T10:26:55.159Z,24.20
2019-06-01T10:29:23.981Z,24.30
2019-06-01T10:31:52.874Z,24.40
2019-06-01T10:34:21.719Z,24.50
2019-06-01T10:36:50.602Z,24.60
2019-06-01T10:39:19.853Z,24.70
2019-06-01T10:41:48.885Z,24.80
2019-06-01T10:44:18.103Z,24.90
2019-06-01T10:46:46.927Z,25.00
2019-06-01T10:49:15.708Z,25.10
2019-06-01T10:51:44.531Z,25.10
2019-06-01T10:54:13.724Z,25.20
2019-06-01T10:56:42.646Z,25.30
2019-06-01T10:59:11.468Z,25.40
2019-06-01T11:01:40.863Z,25.50
2019-06-01T11:04:09.841Z,25.60
2019-06-01T11:06:45.157Z,25.60
2019-06-01T11:09:10.301Z,25.80
2019-06-01T11:11:39.194Z,25.90
2019-06-01T11:14:08.051Z,25.90
2019-06-01T11:16:37.367Z,26.00
2019-06-01T11:19:06.359Z,26.10
2019-06-01T11:21:35.549Z,26.10
2019-06-01T11:24:04.989Z,26.10
2019-06-01T11:26:35.489Z,26.20
2019-06-01T11:29:04.713Z,26.20
2019-06-01T11:31:34.054Z,26.20
2019-06-01T11:34:03.103Z,26.30
2019-06-01T11:36:31.899Z,26.40
2019-06-01T11:39:00.738Z,26.50
2019-06-01T11:41:30.051Z,26.60
2019-06-01T11:43:59.049Z,26.70
2019-06-01T11:46:27.921Z,26.70
2019-06-01T11:48:56.997Z,26.70
2019-06-01T11:51:25.914Z,26.70
2019-06-01T11:53:54.907Z,26.80
2019-06-01T11:56:23.706Z,26.80
2019-06-01T11:58:52.657Z,26.90
2019-06-01T12:01:21.662Z,27.00
2019-06-01T12:03:50.460Z,27.00
2019-06-01T12:06:19.371Z,27.00
2019-06-01T12:08:48.613Z,27.10
2019-06-01T12:11:17.516Z,27.10
2019-06-01T12:13:46.563Z,27.10
2019-06-01T12:16:15.521Z,27.20
2019-06-01T12:18:44.748Z,27.10
2019-06-01T12:21:13.638Z,27.10
2019-06-01T12:23:43.195Z,27.20
2019-06-01T12:26:12.249Z,27.20
2019-06-01T12:28:41.562Z,27.20
2019-06-01T12:31:10.638Z,27.30
2019-06-01T12:33:39.893Z,27.30
2019-06-01T12:36:08.942Z,27.20
2019-06-01T12:38:51.343Z,27.30
2019-06-01T12:41:22.049Z,27.40
2019-06-01T12:44:02.597Z,27.50
2019-06-01T12:46:31.469Z,27.50
2019-06-01T12:49:00.350Z,27.60
2019-06-01T12:51:29.516Z,27.70
2019-06-01T12:53:58.322Z,27.80
2019-06-01T12:56:27.252Z,27.80
2019-06-01T12:58:56.976Z,27.80
2019-06-01T13:01:25.911Z,27.80
2019-06-01T13:03:54.800Z,27.80
2019-06-01T13:06:23.617Z,27.80
2019-06-01T13:08:53.066Z,27.80
2019-06-01T13:11:22.084Z,27.90
2019-06-01T13:13:51.426Z,27.90
2019-06-01T13:16:20.476Z,28.00
2019-06-01T13:18:49.550Z,28.00
2019-06-01T13:21:18.561Z,28.00
2019-06-01T13:23:47.577Z,28.00
2019-06-01T13:26:16.723Z,28.00
2019-06-01T13:28:46.114Z,28.10
2019-06-01T13:31:15.113Z,28.10
2019-06-01T13:33:44.480Z,28.10
2019-06-01T13:36:13.403Z,28.10
2019-06-01T13:38:42.492Z,28.00
2019-06-01T13:41:11.542Z,28.00
2019-06-01T13:43:40.427Z,28.00
2019-06-01T13:46:09.230Z,27.90
2019-06-01T13:48:38.113Z,27.80
2019-06-01T13:51:07.135Z,27.80
2019-06-01T13:53:36.384Z,27.70
2019-06-01T13:56:05.355Z,27.70
2019-06-01T13:58:34.287Z,27.60
2019-06-01T14:01:03.150Z,27.50
2019-06-01T14:03:32.095Z,27.50
2019-06-01T14:06:01.218Z,27.50
2019-06-01T14:08:30.043Z,27.40
2019-06-01T14:10:58.841Z,27.30
2019-06-01T14:13:28.028Z,27.20
2019-06-01T14:15:56.864Z,27.10
2019-06-01T14:18:25.827Z,27.00
2019-06-01T14:20:55.852Z,27.00
2019-06-01T14:23:24.853Z,26.90
2019-06-01T14:25:54.285Z,26.80
2019-06-01T14:28:23.294Z,26.80
2019-06-01T14:30:52.318Z,26.70
2019-06-01T14:33:21.192Z,26.70
2019-06-01T14:35:50.393Z,26.60
2019-06-01T14:38:19.453Z,26.50
2019-06-01T14:40:48.941Z,26.50
2019-06-01T14:43:18.037Z,26.40
2019-06-01T14:45:47.363Z,26.40
2019-06-01T14:48:16.457Z,26.30
2019-06-01T14:50:45.327Z,26.20
2019-06-01T14:53:14.315Z,26.20
2019-06-01T14:55:43.267Z,26.20
2019-06-01T14:58:12.254Z,26.20
2019-06-01T15:00:41.098Z,26.10
2019-06-01T15:03:10.748Z,26.10
2019-06-01T15:05:39.658Z,26.10
2019-06-01T15:08:09.116Z,26.00
2019-06-01T15:10:38.193Z,26.00
2019-06-01T15:13:07.275Z,25.90
2019-06-01T15:15:36.221Z,25.90
2019-06-01T15:18:05.467Z,25.90
2019-06-01T15:20:34.418Z,25.80
2019-06-01T15:23:03.669Z,25.80
2019-06-01T15:25:32.767Z,25.80
2019-06-01T15:28:03.806Z,25.70
2019-06-01T15:30:32.235Z,25.70
2019-06-01T15:33:03.190Z,25.60
2019-06-01T15:35:31.861Z,25.60
2019-06-01T15:38:03.612Z,25.60
2019-06-01T15:40:31.384Z,25.60
2019-06-01T15:43:01.320Z,25.50
2019-06-01T15:45:30.607Z,25.50
2019-06-01T15:47:59.801Z,25.50
2019-06-01T15:50:28.816Z,25.40
2019-06-01T15:52:59.239Z,25.40
2019-06-01T15:55:28.548Z,25.40
2019-06-01T15:57:58.495Z,25.30
2019-06-01T16:00:27.517Z,25.30
2019-06-01T16:02:56.919Z,25.30
2019-06-01T16:05:26.204Z,25.30
2019-06-01T16:07:55.213Z,25.20
2019-06-01T16:10:24.182Z,25.20
2019-06-01T16:12:53.419Z,25.20
2019-06-01T16:15:22.377Z,25.10
2019-06-01T16:17:51.428Z,25.10
2019-06-01T16:20:21.618Z,25.10
2019-06-01T16:22:50.461Z,25.10
2019-06-01T16:25:19.300Z,25.10
2019-06-01T16:27:48.391Z,25.10
2019-06-01T16:30:17.248Z,25.00
2019-06-01T16:32:46.174Z,25.00
2019-06-01T16:35:15.184Z,25.00
2019-06-01T16:37:44.361Z,25.00
2019-06-01T16:40:13.313Z,24.90
2019-06-01T16:42:42.224Z,24.90
2019-06-01T16:45:11.210Z,24.90
2019-06-01T16:47:40.175Z,24.80
2019-06-01T16:50:09.206Z,24.80
2019-06-01T16:52:38.136Z,24.80
2019-06-01T16:55:10.016Z,24.80
2019-06-01T16:57:38.838Z,24.80
2019-06-01T17:00:09.314Z,24.70
2019-06-01T17:02:38.296Z,24.70
2019-06-01T17:05:07.318Z,24.70
2019-06-01T17:07:36.219Z,24.70
2019-06-01T17:10:21.762Z,24.70
2019-06-01T17:12:43.032Z,24.60
2019-06-01T17:15:08.723Z,24.60
2019-06-01T17:17:37.576Z,24.60
2019-06-01T17:20:07.358Z,24.60
2019-06-01T17:22:36.507Z,24.60
2019-06-01T17:25:06.330Z,24.60
2019-06-01T17:27:35.142Z,24.50
2019-06-01T17:30:07.821Z,24.60
2019-06-01T17:32:34.978Z,24.60
2019-06-01T17:35:05.057Z,24.60
2019-06-01T17:37:34.032Z,24.60
2019-06-01T17:40:04.586Z,24.60
2019-06-01T17:42:33.661Z,24.50
2019-06-01T17:45:04.176Z,24.50
2019-06-01T17:47:33.154Z,24.50
2019-06-01T17:50:02.693Z,24.40
2019-06-01T17:52:32.667Z,24.30
2019-06-01T17:55:03.091Z,24.30
2019-06-01T17:57:32.443Z,24.30
2019-06-01T18:00:01.788Z,24.30
2019-06-01T18:02:30.741Z,24.20
2019-06-01T18:04:59.566Z,24.20
2019-06-01T18:07:28.388Z,24.20
2019-06-01T18:09:57.256Z,24.20
2019-06-01T18:12:26.063Z,24.10
2019-06-01T18:14:54.960Z,24.10
2019-06-01T18:17:23.851Z,24.10
2019-06-01T18:19:52.717Z,24.00
2019-06-01T18:22:21.942Z,24.00
2019-06-01T18:24:51.093Z,23.90
2019-06-01T18:27:19.939Z,23.90
2019-06-01T18:29:49.753Z,23.80
2019-06-01T18:32:18.743Z,23.80
2019-06-01T18:34:47.544Z,23.70
2019-06-01T18:37:16.597Z,23.70
2019-06-01T18:39:48.096Z,23.60
2019-06-01T18:42:18.731Z,23.60
2019-06-01T18:44:46.961Z,23.60
2019-06-01T18:47:31.324Z,23.50
2019-06-01T18:49:46.862Z,23.50
2019-06-01T18:52:16.290Z,23.40
2019-06-01T18:54:45.589Z,23.40
2019-06-01T18:57:20.480Z,23.30
2019-06-01T18:59:45.078Z,23.20
2019-06-01T19:02:14.608Z,23.20
2019-06-01T19:04:43.550Z,23.20
2019-06-01T19:07:13.354Z,23.10
2019-06-01T19:09:42.389Z,23.10
2019-06-01T19:12:11.402Z,23.00
2019-06-01T19:14:44.075Z,23.00
2019-06-01T19:17:14.343Z,22.90
2019-06-01T19:19:43.230Z,22.90
2019-06-01T19:22:12.531Z,22.80
2019-06-01T19:24:41.498Z,22.70
2019-06-01T19:27:10.741Z,22.60
2019-06-01T19:29:39.787Z,22.50
2019-06-01T19:32:08.860Z,22.50
2019-06-01T19:34:37.886Z,22.40
2019-06-01T19:37:07.012Z,22.30
2019-06-01T19:39:36.274Z,22.30
2019-06-01T19:42:05.274Z,22.20
2019-06-01T19:44:38.826Z,22.20
2019-06-01T19:47:09.754Z,22.20
2019-06-01T19:49:55.144Z,22.10
2019-06-01T19:52:24.056Z,22.10
2019-06-01T19:54:52.912Z,22.40
2019-06-01T19:57:23.761Z,22.30
2019-06-01T19:59:52.365Z,22.20
2019-06-01T20:02:32.712Z,22.00
2019-06-01T20:04:51.693Z,21.90
2019-06-01T20:07:21.423Z,21.80
2019-06-01T20:09:50.428Z,21.70
2019-06-01T20:12:20.531Z,21.70
2019-06-01T20:14:49.645Z,21.60
2019-06-01T20:17:22.942Z,21.50
2019-06-01T20:19:49.284Z,21.50
2019-06-01T20:22:19.033Z,21.40
2019-06-01T20:24:48.056Z,21.30
2019-06-01T20:27:17.465Z,21.20
2019-06-01T20:29:46.663Z,21.10
2019-06-01T20:32:15.902Z,21.40
2019-06-01T20:34:44.803Z,21.30
2019-06-01T20:37:13.970Z,21.10
2019-06-01T20:39:42.828Z,21.00
2019-06-01T20:42:23.312Z,20.90
2019-06-01T20:44:42.191Z,20.80
2019-06-01T20:47:12.502Z,20.70
2019-06-01T20:49:41.521Z,20.60
2019-06-01T20:52:10.522Z,20.60
2019-06-01T20:54:39.389Z,20.50
2019-06-01T20:57:08.197Z,20.40
2019-06-01T20:59:40.955Z,20.30
2019-06-01T21:02:09.794Z,20.30
2019-06-01T21:04:38.695Z,20.20
2019-06-01T21:07:07.707Z,20.10
2019-06-01T21:09:36.614Z,20.00
2019-06-01T21:12:05.481Z,19.90
2019-06-01T21:14:34.764Z,19.90
2019-06-01T21:17:03.746Z,19.80
2019-06-01T21:19:32.617Z,19.80
2019-06-01T21:22:01.558Z,19.70
2019-06-01T21:24:30.512Z,19.70
2019-06-01T21:26:59.507Z,19.60
2019-06-01T21:29:28.478Z,19.60
2019-06-01T21:31:57.395Z,19.50
2019-06-01T21:34:26.451Z,19.50
2019-06-01T21:36:55.416Z,19.40
2019-06-01T21:39:24.219Z,19.40
2019-06-01T21:41:53.178Z,19.40
2019-06-01T21:44:21.961Z,19.30
2019-06-01T21:46:50.887Z,19.30
2019-06-01T21:49:20.489Z,19.30
2019-06-01T21:51:52.797Z,19.20
2019-06-01T21:54:20.236Z,19.20
2019-06-01T21:56:49.063Z,19.10
2019-06-01T21:59:18.531Z,19.00
2019-06-01T22:01:47.832Z,19.00
2019-06-01T22:04:16.835Z,18.90
2019-06-01T22:06:46.568Z,18.90
2019-06-01T22:09:17.040Z,18.90
2019-06-01T22:11:46.306Z,18.80
2019-06-01T22:14:15.231Z,18.80
2019-06-01T22:16:44.267Z,18.80
2019-06-01T22:19:13.073Z,18.70
2019-06-01T22:21:42.175Z,18.70
2019-06-01T22:24:11.026Z,18.60
2019-06-01T22:26:39.840Z,18.60
2019-06-01T22:29:08.887Z,18.60
2019-06-01T22:31:37.804Z,18.60
2019-06-01T22:34:06.772Z,18.50
2019-06-01T22:36:35.710Z,18.50
2019-06-01T22:39:07.251Z,18.40
2019-06-01T22:41:36.093Z,18.40
2019-06-01T22:44:05.266Z,18.40
2019-06-01T22:46:34.417Z,18.30
2019-06-01T22:49:03.336Z,18.30
2019-06-01T22:51:33.268Z,18.30
2019-06-01T22:54:02.546Z,18.30
2019-06-01T22:56:31.589Z,18.20
2019-06-01T22:59:04.502Z,18.20
2019-06-01T23:01:33.419Z,18.20
2019-06-01T23:04:02.451Z,18.20
2019-06-01T23:06:31.567Z,18.10
2019-06-01T23:09:00.477Z,18.10
2019-06-01T23:11:29.647Z,18.00
2019-06-01T23:13:58.524Z,18.00
2019-06-01T23:16:27.657Z,17.90
2019-06-01T23:18:56.633Z,17.90
2019-06-01T23:21:25.747Z,17.90
2019-06-01T23:23:54.804Z,17.80
2019-06-01T23:26:24.117Z,17.80
2019-06-01T23:28:53.157Z,17.70
2019-06-01T23:31:22.284Z,17.70
2019-06-01T23:33:51.164Z,17.60
2019-06-01T23:36:20.239Z,17.60
2019-06-01T23:38:49.081Z,17.50
2019-06-01T23:41:17.887Z,17.50
2019-06-01T23:43:46.755Z,17.50
2019-06-01T23:46:15.639Z,17.40
2019-06-01T23:48:44.514Z,17.40
2019-06-01T23:51:13.466Z,17.40
2019-06-01T23:53:42.516Z,17.40
2019-06-01T23:56:11.315Z,17.30
2019-06-01T23:58:40.389Z,17.30
